Time;durP1;ratioP1;P1;durP2;ratioP2;P2;SDS_P1;SDS_P2;PMS_P1;PMS_P2;Temp;Humidity;BMP_temperature;BMP_pressure;BME280_temperature;BME280_humidity;BME280_pressure;Samples;Min_cycle;Max_cycle;Signal;HPM_P1;HPM_P2
2023/08/02 00:03:05;;;;;;;17.98;11.07;;;;;;;;;;9989598;29;20785;-83
2023/08/02 00:08:06;;;;;;;15.35;9.15;;;;;;;;;;9991298;29;20094;-84
2023/08/02 00:13:07;;;;;;;13.68;8.45;;;;;;;;;;10009827;29;20110;-86
2023/08/02 00:18:08;;;;;;;13.45;8.30;;;;;;;;;;10008806;29;20666;-84
2023/08/02 00:23:09;;;;;;;14.85;9.00;;;;;;;;;;10004928;29;20026;-85
2023/08/02 00:28:10;;;;;;;14.57;8.13;;;;;;;;;;9995910;29;20073;-83
2023/08/02 00:33:11;;;;;;;14.40;8.10;;;;;;;;;;9987621;29;20427;-84
2023/08/02 00:38:14;;;;;;;13.15;8.15;;;;;;;;;;9995715;29;20450;-85
2023/08/02 00:43:15;;;;;;;12.77;8.05;;;;;;;;;;10002876;29;20056;-85
2023/08/02 00:48:16;;;;;;;13.38;9.07;;;;;;;;;;9983644;29;20038;-85
2023/08/02 00:53:18;;;;;;;16.17;8.23;;;;;;;;;;10000508;29;20132;-84
2023/08/02 00:58:19;;;;;;;16.40;8.75;;;;;;;;;;9994372;29;20031;-84
2023/08/02 01:03:20;;;;;;;12.20;7.50;;;;;;;;;;10003162;29;20436;-85
2023/08/02 01:08:26;;;;;;;10.60;7.00;;;;;;;;;;9994933;29;20030;-83
2023/08/02 01:13:28;;;;;;;10.18;7.15;;;;;;;;;;9998313;29;20054;-84
2023/08/02 01:18:29;;;;;;;9.32;6.30;;;;;;;;;;10007062;29;20037;-83
2023/08/02 01:23:30;;;;;;;11.85;8.05;;;;;;;;;;9993689;29;20102;-84
2023/08/02 01:28:33;;;;;;;10.80;7.53;;;;;;;;;;10004649;29;20090;-83
2023/08/02 01:33:37;;;;;;;15.23;8.25;;;;;;;;;;9998488;29;20049;-84
2023/08/02 01:38:38;;;;;;;15.05;8.63;;;;;;;;;;10006966;29;20363;-85
2023/08/02 01:43:39;;;;;;;14.88;8.55;;;;;;;;;;9998287;29;20046;-84
2023/08/02 01:48:40;;;;;;;16.02;8.65;;;;;;;;;;9988045;29;20041;-84
2023/08/02 01:53:41;;;;;;;13.10;7.65;;;;;;;;;;10006294;29;20046;-83
2023/08/02 01:58:42;;;;;;;13.35;7.70;;;;;;;;;;10000440;29;20117;-84
2023/08/02 02:03:43;;;;;;;11.27;7.82;;;;;;;;;;9995536;29;20091;-83
2023/08/02 02:08:44;;;;;;;15.18;8.20;;;;;;;;;;10003964;29;20038;-84
2023/08/02 02:13:45;;;;;;;11.48;7.57;;;;;;;;;;9988684;29;20049;-83
2023/08/02 02:18:46;;;;;;;18.30;9.70;;;;;;;;;;9994445;29;20479;-84
2023/08/02 02:23:47;;;;;;;17.30;9.95;;;;;;;;;;10005401;29;20062;-84
2023/08/02 02:28:48;;;;;;;14.55;9.13;;;;;;;;;;9985511;29;20046;-84
2023/08/02 02:33:49;;;;;;;20.35;9.75;;;;;;;;;;9999679;29;20056;-84
2023/08/02 02:38:50;;;;;;;20.85;9.60;;;;;;;;;;10007638;29;20037;-83
2023/08/02 02:43:51;;;;;;;15.52;9.25;;;;;;;;;;10010534;29;20037;-83
2023/08/02 02:48:52;;;;;;;17.10;9.93;;;;;;;;;;10004839;29;20451;-83
2023/08/02 02:53:53;;;;;;;17.63;10.35;;;;;;;;;;10010965;29;20045;-83
2023/08/02 02:58:54;;;;;;;19.00;11.20;;;;;;;;;;9985377;29;20098;-84
2023/08/02 03:03:55;;;;;;;20.40;12.65;;;;;;;;;;9991853;29;20456;-84
2023/08/02 03:08:56;;;;;;;21.65;12.65;;;;;;;;;;9997748;29;20030;-83
2023/08/02 03:13:57;;;;;;;21.58;12.13;;;;;;;;;;10011069;29;20447;-84
2023/08/02 03:18:58;;;;;;;23.23;12.45;;;;;;;;;;10007608;29;20038;-83
2023/08/02 03:23:59;;;;;;;17.98;11.70;;;;;;;;;;9998766;29;20065;-83
2023/08/02 03:29:00;;;;;;;18.50;10.55;;;;;;;;;;10009894;29;20859;-83
2023/08/02 03:34:01;;;;;;;18.77;12.05;;;;;;;;;;10004891;29;20042;-83
2023/08/02 03:39:03;;;;;;;18.30;10.90;;;;;;;;;;9975028;29;20157;-83
2023/08/02 03:44:04;;;;;;;14.95;10.55;;;;;;;;;;9973823;29;20033;-87
2023/08/02 03:49:05;;;;;;;20.52;12.73;;;;;;;;;;9985280;29;20050;-83
2023/08/02 03:54:06;;;;;;;17.85;11.43;;;;;;;;;;10006066;29;20037;-85
2023/08/02 03:59:07;;;;;;;23.23;11.63;;;;;;;;;;9989732;29;20034;-83
2023/08/02 04:04:09;;;;;;;18.35;11.57;;;;;;;;;;9994182;29;20030;-83
2023/08/02 04:09:10;;;;;;;19.33;11.48;;;;;;;;;;9999394;29;20152;-82
2023/08/02 04:14:11;;;;;;;19.08;12.27;;;;;;;;;;9987477;29;20701;-83
2023/08/02 04:19:12;;;;;;;18.38;11.93;;;;;;;;;;9999900;29;20037;-87
2023/08/02 04:24:13;;;;;;;19.02;10.90;;;;;;;;;;9999004;29;20058;-84
2023/08/02 04:29:14;;;;;;;17.52;11.00;;;;;;;;;;10003333;29;20034;-85
2023/08/02 04:34:15;;;;;;;16.25;10.85;;;;;;;;;;9990166;29;20280;-83
2023/08/02 04:39:16;;;;;;;16.92;10.98;;;;;;;;;;9998091;29;20025;-83
2023/08/02 04:44:17;;;;;;;16.17;10.88;;;;;;;;;;10000200;29;20508;-83
2023/08/02 04:49:18;;;;;;;15.48;9.57;;;;;;;;;;10009338;29;20028;-84
2023/08/02 04:54:19;;;;;;;15.48;9.70;;;;;;;;;;10009594;29;20037;-81
2023/08/02 04:59:20;;;;;;;11.23;8.65;;;;;;;;;;9993267;29;20675;-82
2023/08/02 05:04:21;;;;;;;12.48;8.25;;;;;;;;;;10009400;29;20086;-80
2023/08/02 05:09:22;;;;;;;11.02;8.48;;;;;;;;;;10010470;29;20034;-85
2023/08/02 05:14:23;;;;;;;14.93;8.20;;;;;;;;;;10008731;29;20029;-82
2023/08/02 05:19:24;;;;;;;13.07;8.25;;;;;;;;;;10009169;29;20034;-82
2023/08/02 05:24:25;;;;;;;11.82;7.60;;;;;;;;;;10009150;29;20053;-83
2023/08/02 05:29:27;;;;;;;10.80;7.53;;;;;;;;;;9992501;29;20053;-83
2023/08/02 05:34:28;;;;;;;10.05;7.05;;;;;;;;;;10008672;29;20048;-85
2023/08/02 05:39:29;;;;;;;11.82;7.07;;;;;;;;;;10008415;29;20034;-83
2023/08/02 05:44:30;;;;;;;10.15;7.38;;;;;;;;;;9991990;29;20034;-84
2023/08/02 05:49:31;;;;;;;9.02;6.43;;;;;;;;;;10008395;29;20519;-82
2023/08/02 05:54:32;;;;;;;8.68;7.15;;;;;;;;;;10008684;29;20160;-86
2023/08/02 05:59:36;;;;;;;8.77;5.82;;;;;;;;;;10008575;29;20038;-83
2023/08/02 06:04:38;;;;;;;10.38;5.60;;;;;;;;;;9991584;29;20110;-82
2023/08/02 06:09:39;;;;;;;12.68;6.35;;;;;;;;;;9996937;29;20034;-82
2023/08/02 06:14:40;;;;;;;9.07;7.13;;;;;;;;;;9986290;29;20052;-84
2023/08/02 06:19:42;;;;;;;10.50;7.68;;;;;;;;;;10016265;29;20042;-83
2023/08/02 06:24:43;;;;;;;8.13;6.45;;;;;;;;;;10015578;29;20099;-83
2023/08/02 06:29:44;;;;;;;15.40;6.18;;;;;;;;;;9997822;29;20037;-83
2023/08/02 06:34:45;;;;;;;8.98;5.38;;;;;;;;;;10002203;29;20056;-81
2023/08/02 06:39:46;;;;;;;7.68;5.50;;;;;;;;;;10014177;29;20034;-83
2023/08/02 06:44:47;;;;;;;7.03;4.55;;;;;;;;;;10015683;29;20037;-84
2023/08/02 06:49:49;;;;;;;4.28;3.67;;;;;;;;;;10015190;29;20398;-82
2023/08/02 06:54:53;;;;;;;5.25;3.13;;;;;;;;;;10014109;29;20046;-84
2023/08/02 06:59:55;;;;;;;7.63;3.70;;;;;;;;;;9997845;29;20423;-84
2023/08/02 07:04:56;;;;;;;5.97;3.78;;;;;;;;;;10014094;29;20746;-83
2023/08/02 07:09:57;;;;;;;3.30;2.53;;;;;;;;;;10013473;29;20046;-84
2023/08/02 07:14:58;;;;;;;3.50;2.45;;;;;;;;;;10000659;29;20529;-84
2023/08/02 07:20:01;;;;;;;3.22;2.28;;;;;;;;;;9999096;29;20526;-84
2023/08/02 07:25:03;;;;;;;2.40;2.13;;;;;;;;;;9989727;29;20133;-85
2023/08/02 07:30:04;;;;;;;4.75;2.75;;;;;;;;;;10031468;24;20605;-85
2023/08/02 07:35:05;;;;;;;2.85;2.50;;;;;;;;;;10011971;29;20042;-82
2023/08/02 07:40:06;;;;;;;3.10;2.78;;;;;;;;;;10002550;29;20040;-83
2023/08/02 07:45:08;;;;;;;3.33;2.60;;;;;;;;;;10012329;29;20034;-84
2023/08/02 07:50:10;;;;;;;5.00;3.33;;;;;;;;;;9995187;29;20091;-84
2023/08/02 07:55:11;;;;;;;3.30;2.42;;;;;;;;;;9994313;29;20133;-86
2023/08/02 08:00:12;;;;;;;3.25;2.65;;;;;;;;;;10011820;29;20038;-83
2023/08/02 08:05:13;;;;;;;3.50;2.67;;;;;;;;;;9987709;29;20080;-84
2023/08/02 08:10:14;;;;;;;4.80;2.65;;;;;;;;;;10010954;29;20033;-84
2023/08/02 08:15:15;;;;;;;4.63;2.83;;;;;;;;;;10010763;29;20038;-85
2023/08/02 08:20:16;;;;;;;3.55;3.22;;;;;;;;;;10001617;29;20050;-83
2023/08/02 08:25:17;;;;;;;3.63;2.72;;;;;;;;;;9939158;29;20038;-85
2023/08/02 08:30:18;;;;;;;4.28;2.78;;;;;;;;;;9966172;29;20759;-84
2023/08/02 08:35:19;;;;;;;5.00;2.80;;;;;;;;;;9962094;29;20042;-82
2023/08/02 08:40:20;;;;;;;4.18;3.13;;;;;;;;;;9949709;29;20056;-81
2023/08/02 08:45:23;;;;;;;7.03;3.08;;;;;;;;;;9960562;29;20069;-84
2023/08/02 08:50:26;;;;;;;5.70;3.22;;;;;;;;;;9971984;29;20487;-81
2023/08/02 08:55:28;;;;;;;5.63;2.88;;;;;;;;;;9971696;29;20091;-82
2023/08/02 09:00:31;;;;;;;3.38;2.28;;;;;;;;;;9972876;29;20104;-82
2023/08/02 09:05:32;;;;;;;3.97;2.80;;;;;;;;;;9974759;29;20072;-82
2023/08/02 09:10:33;;;;;;;2.92;2.10;;;;;;;;;;9971231;29;20034;-83
2023/08/02 09:15:34;;;;;;;4.00;2.70;;;;;;;;;;9971308;29;20446;-82
2023/08/02 09:20:35;;;;;;;3.45;2.30;;;;;;;;;;9970332;29;20038;-82
2023/08/02 09:25:36;;;;;;;2.75;2.08;;;;;;;;;;9971677;29;20030;-84
2023/08/02 09:30:37;;;;;;;3.58;2.55;;;;;;;;;;9953591;29;20066;-81
2023/08/02 09:35:50;;;;;;;4.25;2.20;;;;;;;;;;9965767;29;20038;-83
2023/08/02 09:40:51;;;;;;;2.88;1.80;;;;;;;;;;9969704;29;20077;-81
2023/08/02 09:45:52;;;;;;;2.70;2.20;;;;;;;;;;9970079;29;20839;-81
2023/08/02 09:50:58;;;;;;;4.72;2.47;;;;;;;;;;9970574;29;20038;-82
2023/08/02 09:56:00;;;;;;;4.47;2.22;;;;;;;;;;9958674;29;20571;-82
2023/08/02 10:01:01;;;;;;;2.88;1.80;;;;;;;;;;9970535;29;20033;-83
2023/08/02 10:06:06;;;;;;;2.85;1.50;;;;;;;;;;9968742;29;20113;-84
2023/08/02 10:11:07;;;;;;;2.92;1.75;;;;;;;;;;9968710;29;20052;-83
2023/08/02 10:16:08;;;;;;;9.05;1.60;;;;;;;;;;9969926;29;20031;-84
2023/08/02 10:21:10;;;;;;;3.50;1.27;;;;;;;;;;9973487;29;20129;-84
2023/08/02 10:26:11;;;;;;;3.25;1.33;;;;;;;;;;9978633;29;20049;-84
2023/08/02 10:31:12;;;;;;;4.05;1.30;;;;;;;;;;9964636;29;20511;-82
2023/08/02 10:36:13;;;;;;;1.75;1.10;;;;;;;;;;9971180;29;20081;-82
2023/08/02 10:41:20;;;;;;;2.30;1.33;;;;;;;;;;9968666;29;20034;-84
2023/08/02 10:46:26;;;;;;;3.38;1.55;;;;;;;;;;9969195;29;20053;-83
2023/08/02 10:51:27;;;;;;;2.05;1.48;;;;;;;;;;9967767;29;20043;-82
2023/08/02 10:56:28;;;;;;;4.18;1.40;;;;;;;;;;9972441;29;20082;-83
2023/08/02 11:01:29;;;;;;;2.45;1.42;;;;;;;;;;9974430;29;20539;-84
2023/08/02 11:06:33;;;;;;;2.30;1.27;;;;;;;;;;9975020;29;20398;-83
2023/08/02 11:11:35;;;;;;;4.45;1.70;;;;;;;;;;9975327;29;20038;-83
2023/08/02 11:16:40;;;;;;;2.35;1.35;;;;;;;;;;9973286;29;20038;-82
2023/08/02 11:21:51;;;;;;;2.08;1.40;;;;;;;;;;9973543;29;20091;-83
2023/08/02 11:26:56;;;;;;;2.42;1.70;;;;;;;;;;9974677;29;20054;-85
2023/08/02 11:32:01;;;;;;;1.98;1.35;;;;;;;;;;9973242;29;20153;-83
2023/08/02 11:37:02;;;;;;;3.60;1.60;;;;;;;;;;9966233;29;20057;-86
2023/08/02 11:42:04;;;;;;;1.58;1.33;;;;;;;;;;9953450;29;20052;-84
2023/08/02 11:47:05;;;;;;;3.20;1.48;;;;;;;;;;9948449;29;20167;-84
2023/08/02 11:52:07;;;;;;;2.97;1.30;;;;;;;;;;9943820;29;20034;-84
2023/08/02 11:57:08;;;;;;;1.75;1.20;;;;;;;;;;9954447;29;20074;-83
2023/08/02 12:02:27;;;;;;;1.95;1.10;;;;;;;;;;9969375;29;20054;-82
2023/08/02 12:07:29;;;;;;;3.08;1.40;;;;;;;;;;9960220;29;20392;-84
2023/08/02 12:12:34;;;;;;;4.75;1.48;;;;;;;;;;9965143;29;20050;-83
2023/08/02 12:17:35;;;;;;;3.08;1.42;;;;;;;;;;9960722;29;20148;-83
2023/08/02 12:22:49;;;;;;;1.70;1.27;;;;;;;;;;9971845;29;20034;-82
2023/08/02 12:28:06;;;;;;;4.83;1.53;;;;;;;;;;9974216;29;20115;-84
2023/08/02 12:33:07;;;;;;;4.43;1.20;;;;;;;;;;9973030;29;20169;-84
2023/08/02 12:38:08;;;;;;;2.58;1.00;;;;;;;;;;9968167;29;20042;-83
2023/08/02 12:43:09;;;;;;;1.50;1.00;;;;;;;;;;9959788;29;20022;-82
2023/08/02 12:48:10;;;;;;;1.70;1.10;;;;;;;;;;9962578;29;20635;-81
2023/08/02 12:53:12;;;;;;;1.50;1.08;;;;;;;;;;9965982;29;20038;-85
2023/08/02 12:58:13;;;;;;;1.48;0.90;;;;;;;;;;9972348;29;20034;-83
2023/08/02 13:03:14;;;;;;;3.05;1.20;;;;;;;;;;9970520;29;20046;-85
2023/08/02 13:08:15;;;;;;;1.83;1.02;;;;;;;;;;9971196;29;20087;-83
2023/08/02 13:13:16;;;;;;;3.63;1.10;;;;;;;;;;9970304;29;20050;-83
2023/08/02 13:18:17;;;;;;;2.60;1.17;;;;;;;;;;9953230;29;20038;-83
2023/08/02 13:23:18;;;;;;;2.25;1.10;;;;;;;;;;9968799;29;20491;-83
2023/08/02 13:28:19;;;;;;;2.40;1.10;;;;;;;;;;9969380;29;20035;-84
2023/08/02 13:33:20;;;;;;;1.52;1.08;;;;;;;;;;9972055;29;20050;-83
2023/08/02 13:38:21;;;;;;;1.73;1.13;;;;;;;;;;9965678;29;20042;-81
2023/08/02 13:43:24;;;;;;;3.95;1.23;;;;;;;;;;9945013;29;20042;-84
2023/08/02 13:48:26;;;;;;;1.80;0.82;;;;;;;;;;9958122;29;20425;-84
2023/08/02 13:53:27;;;;;;;2.53;1.00;;;;;;;;;;9968946;29;20065;-85
2023/08/02 13:58:28;;;;;;;2.83;1.02;;;;;;;;;;9968408;29;20046;-83
2023/08/02 14:03:29;;;;;;;1.50;0.98;;;;;;;;;;9967752;29;20039;-85
2023/08/02 14:08:30;;;;;;;2.63;1.00;;;;;;;;;;9966123;29;20061;-83
2023/08/02 14:13:31;;;;;;;3.70;1.17;;;;;;;;;;9948309;29;20163;-85
2023/08/02 14:18:32;;;;;;;1.95;1.20;;;;;;;;;;9967849;29;20808;-85
2023/08/02 14:23:33;;;;;;;1.55;0.85;;;;;;;;;;9969685;29;20495;-86
2023/08/02 14:28:34;;;;;;;2.50;0.93;;;;;;;;;;9969158;29;20177;-86
2023/08/02 14:33:35;;;;;;;2.45;1.13;;;;;;;;;;9948056;29;20047;-87
2023/08/02 14:38:36;;;;;;;1.90;1.08;;;;;;;;;;9976872;29;20042;-90
2023/08/02 14:43:38;;;;;;;0.88;0.82;;;;;;;;;;9974274;29;20174;-85
2023/08/02 14:48:39;;;;;;;3.13;0.95;;;;;;;;;;9982104;29;20464;-88
2023/08/02 14:53:42;;;;;;;2.15;1.00;;;;;;;;;;9975443;29;20034;-87
2023/08/02 14:58:43;;;;;;;1.92;1.25;;;;;;;;;;9975197;29;20567;-88
2023/08/02 15:03:44;;;;;;;2.65;1.15;;;;;;;;;;9956377;29;20034;-86
2023/08/02 15:08:45;;;;;;;1.55;0.88;;;;;;;;;;9976429;29;20535;-87
2023/08/02 15:13:46;;;;;;;3.88;1.25;;;;;;;;;;9975975;29;20037;-88
2023/08/02 15:18:47;;;;;;;1.85;1.10;;;;;;;;;;9976558;29;20038;-88
2023/08/02 15:23:49;;;;;;;2.78;1.17;;;;;;;;;;9975965;29;20027;-85
2023/08/02 15:28:50;;;;;;;3.88;0.93;;;;;;;;;;9975353;29;20066;-88
2023/08/02 15:33:52;;;;;;;1.52;0.90;;;;;;;;;;9975179;29;20034;-85
2023/08/02 15:38:53;;;;;;;2.10;1.10;;;;;;;;;;9974367;29;20046;-85
2023/08/02 15:43:54;;;;;;;1.25;1.10;;;;;;;;;;9974501;29;20099;-87
2023/08/02 15:48:55;;;;;;;2.45;1.50;;;;;;;;;;9973750;29;20376;-87
2023/08/02 15:53:56;;;;;;;2.92;1.25;;;;;;;;;;9972818;29;20034;-87
2023/08/02 15:58:57;;;;;;;1.30;0.90;;;;;;;;;;9974510;29;20034;-86
2023/08/02 16:03:58;;;;;;;3.20;1.50;;;;;;;;;;9972883;29;20030;-87
2023/08/02 16:09:03;;;;;;;3.50;1.20;;;;;;;;;;9973976;29;20034;-86
2023/08/02 16:14:04;;;;;;;2.03;1.43;;;;;;;;;;9974004;29;20482;-86
2023/08/02 16:19:05;;;;;;;3.67;1.23;;;;;;;;;;9973569;29;20049;-86
2023/08/02 16:24:06;;;;;;;2.42;1.20;;;;;;;;;;9973900;29;20030;-87
2023/08/02 16:29:07;;;;;;;3.55;1.50;;;;;;;;;;9971863;29;20155;-87
2023/08/02 16:34:08;;;;;;;3.85;1.15;;;;;;;;;;9973051;29;20052;-87
2023/08/02 16:39:09;;;;;;;2.65;1.20;;;;;;;;;;9973708;29;20096;-86
2023/08/02 16:44:10;;;;;;;5.07;1.42;;;;;;;;;;9973383;29;20030;-87
2023/08/02 16:49:11;;;;;;;4.22;1.40;;;;;;;;;;9958686;29;20377;-88
2023/08/02 16:54:12;;;;;;;1.77;1.00;;;;;;;;;;9960096;29;20415;-88
2023/08/02 16:59:13;;;;;;;1.80;1.17;;;;;;;;;;9972949;29;20433;-87
2023/08/02 17:04:14;;;;;;;1.77;1.30;;;;;;;;;;9971013;29;20029;-88
2023/08/02 17:09:15;;;;;;;4.15;1.58;;;;;;;;;;9972432;29;20369;-88
2023/08/02 17:14:16;;;;;;;2.50;1.52;;;;;;;;;;9970548;29;20035;-87
2023/08/02 17:19:17;;;;;;;2.35;1.70;;;;;;;;;;9970088;29;20571;-87
2023/08/02 17:24:18;;;;;;;5.53;1.95;;;;;;;;;;9972746;29;20030;-87
2023/08/02 17:29:19;;;;;;;5.18;1.92;;;;;;;;;;9969976;29;20118;-87
2023/08/02 17:34:20;;;;;;;3.45;1.90;;;;;;;;;;9971105;29;20038;-87
2023/08/02 17:39:21;;;;;;;3.97;1.90;;;;;;;;;;9969835;29;20065;-89
2023/08/02 17:44:22;;;;;;;2.22;1.48;;;;;;;;;;9969632;29;20035;-87
2023/08/02 17:49:23;;;;;;;3.15;1.60;;;;;;;;;;9952204;29;20038;-87
2023/08/02 17:54:24;;;;;;;7.05;1.77;;;;;;;;;;9970373;29;20102;-87
2023/08/02 17:59:25;;;;;;;1.58;1.33;;;;;;;;;;9944810;29;20042;-86
2023/08/02 18:04:26;;;;;;;2.45;1.38;;;;;;;;;;9974176;29;20110;-85
2023/08/02 18:09:27;;;;;;;4.82;1.80;;;;;;;;;;9967517;29;20035;-87
2023/08/02 18:14:28;;;;;;;3.22;1.40;;;;;;;;;;9978015;29;20077;-87
2023/08/02 18:19:29;;;;;;;2.25;2.03;;;;;;;;;;9980746;29;20046;-86
2023/08/02 18:24:30;;;;;;;6.47;1.85;;;;;;;;;;9974668;29;20034;-85
2023/08/02 18:29:31;;;;;;;2.50;1.60;;;;;;;;;;9960098;29;20062;-86
2023/08/02 18:34:32;;;;;;;2.28;1.90;;;;;;;;;;9970877;29;20046;-85
2023/08/02 18:39:34;;;;;;;4.32;1.60;;;;;;;;;;9959478;29;20046;-85
2023/08/02 18:44:35;;;;;;;5.43;2.20;;;;;;;;;;9974640;29;20380;-85
2023/08/02 18:49:40;;;;;;;4.35;2.03;;;;;;;;;;9974128;29;20038;-85
2023/08/02 18:54:41;;;;;;;2.72;2.15;;;;;;;;;;9958393;29;20038;-85
2023/08/02 18:59:43;;;;;;;2.90;2.03;;;;;;;;;;9967323;29;20602;-85
2023/08/02 19:04:44;;;;;;;3.42;2.10;;;;;;;;;;9958673;29;20695;-84
2023/08/02 19:09:45;;;;;;;6.40;2.53;;;;;;;;;;9974824;29;20432;-83
2023/08/02 19:14:47;;;;;;;3.40;2.00;;;;;;;;;;9975134;29;20102;-85
2023/08/02 19:19:48;;;;;;;3.80;2.10;;;;;;;;;;9975158;29;20038;-86
2023/08/02 19:24:49;;;;;;;4.05;2.42;;;;;;;;;;9974087;29;20417;-85
2023/08/02 19:29:51;;;;;;;3.90;2.55;;;;;;;;;;9972299;29;20491;-85
2023/08/02 19:34:52;;;;;;;6.35;2.58;;;;;;;;;;9973661;29;20399;-84
2023/08/02 19:39:53;;;;;;;5.68;2.38;;;;;;;;;;9966234;29;20049;-84
2023/08/02 19:44:54;;;;;;;5.10;2.65;;;;;;;;;;9970363;29;20133;-84
2023/08/02 19:49:55;;;;;;;4.45;2.30;;;;;;;;;;9974293;29;20049;-83
2023/08/02 19:54:56;;;;;;;3.67;2.50;;;;;;;;;;9974100;29;20031;-83
2023/08/02 19:59:59;;;;;;;3.83;2.42;;;;;;;;;;9961320;29;20029;-85
2023/08/02 20:05:00;;;;;;;4.22;2.58;;;;;;;;;;9971586;29;20031;-84
2023/08/02 20:10:21;;;;;;;3.40;2.53;;;;;;;;;;9973351;29;20042;-83
2023/08/02 20:15:22;;;;;;;3.60;2.40;;;;;;;;;;9971960;29;20046;-85
2023/08/02 20:20:23;;;;;;;2.97;2.13;;;;;;;;;;9971377;29;20128;-84
2023/08/02 20:25:24;;;;;;;5.22;2.55;;;;;;;;;;9973272;29;20069;-84
2023/08/02 20:30:25;;;;;;;4.40;2.17;;;;;;;;;;9972176;29;20059;-85
2023/08/02 20:35:26;;;;;;;5.72;2.70;;;;;;;;;;9965678;29;20091;-84
2023/08/02 20:40:27;;;;;;;4.15;2.80;;;;;;;;;;9972959;29;20034;-83
2023/08/02 20:45:28;;;;;;;7.55;3.35;;;;;;;;;;9971418;29;20121;-84
2023/08/02 20:50:29;;;;;;;4.25;2.55;;;;;;;;;;9970410;29;20113;-85
2023/08/02 20:55:35;;;;;;;5.22;2.80;;;;;;;;;;9971759;29;20487;-85
2023/08/02 21:00:37;;;;;;;6.15;2.80;;;;;;;;;;9968931;29;20429;-85
2023/08/02 21:05:38;;;;;;;7.40;2.75;;;;;;;;;;9971370;29;20037;-85
2023/08/02 21:10:39;;;;;;;4.53;3.20;;;;;;;;;;9949927;29;20125;-85
2023/08/02 21:15:45;;;;;;;5.28;3.05;;;;;;;;;;9970249;29;20437;-85
2023/08/02 21:20:46;;;;;;;5.35;2.80;;;;;;;;;;9975162;29;20046;-84
2023/08/02 21:25:48;;;;;;;6.03;3.35;;;;;;;;;;9969081;29;20030;-85
2023/08/02 21:30:52;;;;;;;8.40;3.42;;;;;;;;;;9970646;29;20094;-84
2023/08/02 21:35:57;;;;;;;6.15;3.03;;;;;;;;;;9969788;29;20042;-84
2023/08/02 21:41:02;;;;;;;5.70;3.75;;;;;;;;;;9953052;29;20026;-84
2023/08/02 21:46:04;;;;;;;;;;;;;;;;;;9945263;29;20034;-84
2023/08/02 21:51:05;;;;;;;5.82;3.30;;;;;;;;;;9969416;29;19995;-84
2023/08/02 21:56:09;;;;;;;5.88;3.47;;;;;;;;;;9941994;29;20054;-84
2023/08/02 22:01:16;;;;;;;4.60;2.70;;;;;;;;;;9957336;29;20491;-84
2023/08/02 22:06:18;;;;;;;5.13;3.00;;;;;;;;;;9965954;29;20033;-83
2023/08/02 22:11:21;;;;;;;4.82;2.85;;;;;;;;;;9970281;29;20028;-84
2023/08/02 22:16:23;;;;;;;5.93;3.00;;;;;;;;;;9969785;29;20098;-87
2023/08/02 22:21:24;;;;;;;4.82;2.85;;;;;;;;;;9969976;29;20022;-85
2023/08/02 22:26:25;;;;;;;4.97;3.10;;;;;;;;;;9968620;29;20034;-86
2023/08/02 22:31:26;;;;;;;4.03;2.92;;;;;;;;;;9969670;29;20058;-86
2023/08/02 22:36:27;;;;;;;4.72;3.47;;;;;;;;;;9969989;29;20042;-84
2023/08/02 22:41:28;;;;;;;5.03;2.95;;;;;;;;;;9969865;29;20396;-86
2023/08/02 22:46:31;;;;;;;5.57;3.08;;;;;;;;;;9967645;29;20040;-86
2023/08/02 22:51:32;;;;;;;3.83;2.92;;;;;;;;;;9973867;29;20920;-86
2023/08/02 22:56:33;;;;;;;6.53;2.80;;;;;;;;;;9976577;29;20172;-84
2023/08/02 23:01:34;;;;;;;3.55;2.95;;;;;;;;;;9975709;29;20129;-85
2023/08/02 23:06:35;;;;;;;4.65;2.80;;;;;;;;;;9975940;29;20038;-86
2023/08/02 23:11:37;;;;;;;4.70;3.00;;;;;;;;;;9975658;29;20651;-87
2023/08/02 23:16:38;;;;;;;4.60;2.80;;;;;;;;;;9975000;29;20095;-87
2023/08/02 23:21:39;;;;;;;4.97;2.58;;;;;;;;;;9967255;29;20046;-88
2023/08/02 23:26:40;;;;;;;3.78;2.70;;;;;;;;;;9972863;29;20043;-86
2023/08/02 23:31:41;;;;;;;3.70;2.33;;;;;;;;;;9968402;29;20062;-86
2023/08/02 23:36:42;;;;;;;5.28;2.55;;;;;;;;;;9974981;29;20166;-87
2023/08/02 23:41:43;;;;;;;3.63;2.45;;;;;;;;;;9974993;29;20086;-85
2023/08/02 23:46:44;;;;;;;5.03;2.60;;;;;;;;;;9973264;29;20483;-86
2023/08/02 23:51:45;;;;;;;7.88;2.92;;;;;;;;;;9974177;29;20101;-85
2023/08/02 23:56:46;;;;;;;6.45;3.17;;;;;;;;;;9974376;29;20476;-86
